sensor_id;sensor_type;location;lat;lon;timestamp;pressure;altitude;pressure_sealevel;temperature;humidity
10462;BME280;5278;42.656;23.374;2023-04-26T00:00:29;93749.63;;;11.72;99.08
10462;BME280;5278;42.656;23.374;2023-04-26T00:02:58;93731.63;;;11.83;99.52
10462;BME280;5278;42.656;23.374;2023-04-26T00:05:25;93709.84;;;11.78;99.70
10462;BME280;5278;42.656;23.374;2023-04-26T00:07:52;93711.41;;;11.72;99.67
10462;BME280;5278;42.656;23.374;2023-04-26T00:10:19;93700.81;;;11.67;99.88
10462;BME280;5278;42.656;23.374;2023-04-26T00:12:46;93697.63;;;11.65;100.00
10462;BME280;5278;42.656;23.374;2023-04-26T00:15:13;93693.63;;;11.62;100.00
10462;BME280;5278;42.656;23.374;2023-04-26T00:17:41;93682.22;;;11.57;100.00
10462;BME280;5278;42.656;23.374;2023-04-26T00:20:09;93679.63;;;11.57;100.00
10462;BME280;5278;42.656;23.374;2023-04-26T00:22:38;93681.84;;;11.47;100.00
10462;BME280;5278;42.656;23.374;2023-04-26T00:25:05;93683.69;;;11.40;100.00
10462;BME280;5278;42.656;23.374;2023-04-26T00:27:32;93686.88;;;11.35;100.00
10462;BME280;5278;42.656;23.374;2023-04-26T00:29:59;93682.50;;;11.29;100.00
10462;BME280;5278;42.656;23.374;2023-04-26T00:32:26;93666.88;;;11.16;100.00
10462;BME280;5278;42.656;23.374;2023-04-26T00:34:54;93674.50;;;11.24;100.00
10462;BME280;5278;42.656;23.374;2023-04-26T00:37:21;93684.09;;;11.23;100.00
10462;BME280;5278;42.656;23.374;2023-04-26T00:39:49;93672.88;;;11.16;100.00
10462;BME280;5278;42.656;23.374;2023-04-26T00:42:16;93671.69;;;11.12;100.00
10462;BME280;5278;42.656;23.374;2023-04-26T00:44:43;93670.09;;;11.11;100.00
10462;BME280;5278;42.656;23.374;2023-04-26T00:47:10;93666.91;;;11.09;100.00
10462;BME280;5278;42.656;23.374;2023-04-26T00:49:37;93580.59;;;10.55;100.00
10462;BME280;5278;42.656;23.374;2023-04-26T00:52:06;93675.28;;;11.11;100.00
10462;BME280;5278;42.656;23.374;2023-04-26T00:54:33;93672.69;;;11.11;100.00
10462;BME280;5278;42.656;23.374;2023-04-26T00:57:01;93670.50;;;11.08;100.00
10462;BME280;5278;42.656;23.374;2023-04-26T00:59:28;93658.31;;;11.09;100.00
10462;BME280;5278;42.656;23.374;2023-04-26T01:01:55;93667.72;;;11.10;100.00
10462;BME280;5278;42.656;23.374;2023-04-26T01:04:22;93675.72;;;11.08;100.00
10462;BME280;5278;42.656;23.374;2023-04-26T01:06:51;93677.91;;;11.05;100.00
10462;BME280;5278;42.656;23.374;2023-04-26T01:09:20;93679.50;;;11.06;100.00
10462;BME280;5278;42.656;23.374;2023-04-26T01:11:47;93685.09;;;11.03;100.00
10462;BME280;5278;42.656;23.374;2023-04-26T01:14:14;93669.53;;;10.90;100.00
10462;BME280;5278;42.656;23.374;2023-04-26T01:16:41;93682.50;;;10.96;100.00
10462;BME280;5278;42.656;23.374;2023-04-26T01:19:11;93670.53;;;10.95;100.00
10462;BME280;5278;42.656;23.374;2023-04-26T01:21:39;93686.72;;;10.91;100.00
10462;BME280;5278;42.656;23.374;2023-04-26T01:24:08;93671.13;;;10.84;100.00
10462;BME280;5278;42.656;23.374;2023-04-26T01:26:36;93661.50;;;10.71;100.00
10462;BME280;5278;42.656;23.374;2023-04-26T01:29:18;93556.78;;;10.05;100.00
10462;BME280;5278;42.656;23.374;2023-04-26T01:31:45;93661.69;;;10.76;100.00
10462;BME280;5278;42.656;23.374;2023-04-26T01:34:12;93660.69;;;10.71;100.00
10462;BME280;5278;42.656;23.374;2023-04-26T01:36:40;93663.91;;;10.73;100.00
10462;BME280;5278;42.656;23.374;2023-04-26T01:39:08;93668.91;;;10.68;100.00
10462;BME280;5278;42.656;23.374;2023-04-26T01:41:36;93667.28;;;10.67;100.00
10462;BME280;5278;42.656;23.374;2023-04-26T01:44:03;93653.53;;;10.60;100.00
10462;BME280;5278;42.656;23.374;2023-04-26T01:46:30;93671.69;;;10.60;100.00
10462;BME280;5278;42.656;23.374;2023-04-26T01:48:56;93681.50;;;10.64;100.00
10462;BME280;5278;42.656;23.374;2023-04-26T01:51:23;93678.91;;;10.64;100.00
10462;BME280;5278;42.656;23.374;2023-04-26T01:53:51;93688.28;;;10.59;98.54
10462;BME280;5278;42.656;23.374;2023-04-26T01:56:21;93672.31;;;10.55;97.07
10462;BME280;5278;42.656;23.374;2023-04-26T01:58:48;93674.09;;;10.55;96.46
10462;BME280;5278;42.656;23.374;2023-04-26T02:01:15;93674.09;;;10.55;96.28
10462;BME280;5278;42.656;23.374;2023-04-26T02:03:41;93664.50;;;10.55;96.41
10462;BME280;5278;42.656;23.374;2023-04-26T02:06:08;93656.09;;;10.53;96.86
10462;BME280;5278;42.656;23.374;2023-04-26T02:08:35;93667.91;;;10.56;97.18
10462;BME280;5278;42.656;23.374;2023-04-26T02:11:02;93670.84;;;10.46;97.48
10462;BME280;5278;42.656;23.374;2023-04-26T02:13:30;93663.66;;;10.42;97.77
10462;BME280;5278;42.656;23.374;2023-04-26T02:15:57;93662.47;;;10.38;97.99
10462;BME280;5278;42.656;23.374;2023-04-26T02:18:25;93667.88;;;10.43;97.82
10462;BME280;5278;42.656;23.374;2023-04-26T02:20:52;93660.84;;;10.36;98.44
10462;BME280;5278;42.656;23.374;2023-04-26T02:23:18;93658.47;;;10.42;98.87
10462;BME280;5278;42.656;23.374;2023-04-26T02:25:47;93650.69;;;10.42;98.60
10462;BME280;5278;42.656;23.374;2023-04-26T02:28:15;93660.91;;;10.50;98.61
10462;BME280;5278;42.656;23.374;2023-04-26T02:30:43;93655.88;;;10.42;98.77
10462;BME280;5278;42.656;23.374;2023-04-26T02:33:10;93667.28;;;10.54;98.60
10462;BME280;5278;42.656;23.374;2023-04-26T02:35:37;93662.50;;;10.51;98.62
10462;BME280;5278;42.656;23.374;2023-04-26T02:38:04;93666.91;;;10.50;98.94
10462;BME280;5278;42.656;23.374;2023-04-26T02:40:31;93663.28;;;10.51;99.29
10462;BME280;5278;42.656;23.374;2023-04-26T02:42:58;93659.50;;;10.54;99.36
10462;BME280;5278;42.656;23.374;2023-04-26T02:45:25;93654.69;;;10.44;98.84
10462;BME280;5278;42.656;23.374;2023-04-26T02:47:53;93661.69;;;10.57;99.61
10462;BME280;5278;42.656;23.374;2023-04-26T02:50:20;93652.91;;;10.58;99.82
10462;BME280;5278;42.656;23.374;2023-04-26T02:52:47;93648.72;;;10.57;100.00
10462;BME280;5278;42.656;23.374;2023-04-26T02:55:14;93643.53;;;10.63;100.00
10462;BME280;5278;42.656;23.374;2023-04-26T02:57:40;93638.53;;;10.62;100.00
10462;BME280;5278;42.656;23.374;2023-04-26T03:00:08;93632.75;;;10.73;100.00
10462;BME280;5278;42.656;23.374;2023-04-26T03:02:36;93628.94;;;10.69;98.73
10462;BME280;5278;42.656;23.374;2023-04-26T03:05:05;93635.94;;;10.62;97.38
10462;BME280;5278;42.656;23.374;2023-04-26T03:07:31;93644.34;;;10.64;95.59
10462;BME280;5278;42.656;23.374;2023-04-26T03:09:58;93643.94;;;10.60;95.20
10462;BME280;5278;42.656;23.374;2023-04-26T03:12:27;93645.31;;;10.56;94.45
10462;BME280;5278;42.656;23.374;2023-04-26T03:14:54;93650.50;;;10.56;92.55
10462;BME280;5278;42.656;23.374;2023-04-26T03:17:20;93646.94;;;10.51;92.99
10462;BME280;5278;42.656;23.374;2023-04-26T03:19:47;93637.94;;;10.53;93.23
10462;BME280;5278;42.656;23.374;2023-04-26T03:22:15;93641.50;;;10.52;94.68
10462;BME280;5278;42.656;23.374;2023-04-26T03:24:43;93633.75;;;10.59;95.17
10462;BME280;5278;42.656;23.374;2023-04-26T03:27:10;93547.19;;;9.99;94.04
10462;BME280;5278;42.656;23.374;2023-04-26T03:29:37;93641.72;;;10.64;93.60
10462;BME280;5278;42.656;23.374;2023-04-26T03:32:04;93647.31;;;10.67;94.13
10462;BME280;5278;42.656;23.374;2023-04-26T03:34:31;93652.72;;;10.66;93.55
10462;BME280;5278;42.656;23.374;2023-04-26T03:36:58;93651.34;;;10.70;93.16
10462;BME280;5278;42.656;23.374;2023-04-26T03:39:26;93635.94;;;10.68;93.05
10462;BME280;5278;42.656;23.374;2023-04-26T03:41:53;93571.34;;;10.06;92.97
10462;BME280;5278;42.656;23.374;2023-04-26T03:44:20;93646.75;;;10.85;92.90
10462;BME280;5278;42.656;23.374;2023-04-26T03:46:47;93642.53;;;10.91;92.84
10462;BME280;5278;42.656;23.374;2023-04-26T03:49:14;93648.31;;;10.93;93.14
10462;BME280;5278;42.656;23.374;2023-04-26T03:51:41;93645.31;;;11.02;93.43
10462;BME280;5278;42.656;23.374;2023-04-26T03:54:08;93649.31;;;11.11;93.08
10462;BME280;5278;42.656;23.374;2023-04-26T03:56:36;93648.31;;;11.19;92.37
10462;BME280;5278;42.656;23.374;2023-04-26T03:59:04;93646.84;;;11.36;91.97
10462;BME280;5278;42.656;23.374;2023-04-26T04:01:31;93645.25;;;11.55;92.89
10462;BME280;5278;42.656;23.374;2023-04-26T04:03:58;93641.16;;;11.72;93.08
10462;BME280;5278;42.656;23.374;2023-04-26T04:06:25;93650.72;;;11.98;91.72
10462;BME280;5278;42.656;23.374;2023-04-26T04:08:52;93658.59;;;12.23;89.33
10462;BME280;5278;42.656;23.374;2023-04-26T04:11:20;93560.31;;;11.80;87.31
10462;BME280;5278;42.656;23.374;2023-04-26T04:13:48;93664.84;;;12.53;86.90
10462;BME280;5278;42.656;23.374;2023-04-26T04:16:15;93671.72;;;12.72;85.78
10462;BME280;5278;42.656;23.374;2023-04-26T04:18:42;93668.81;;;12.87;84.19
10462;BME280;5278;42.656;23.374;2023-04-26T04:21:09;93668.94;;;12.99;83.19
10462;BME280;5278;42.656;23.374;2023-04-26T04:23:36;93665.88;;;13.02;82.71
10462;BME280;5278;42.656;23.374;2023-04-26T04:26:03;93672.84;;;13.14;81.63
10462;BME280;5278;42.656;23.374;2023-04-26T04:28:31;93672.84;;;13.14;81.57
10462;BME280;5278;42.656;23.374;2023-04-26T04:31:00;93672.44;;;13.11;82.24
10462;BME280;5278;42.656;23.374;2023-04-26T04:33:27;93672.66;;;13.09;83.72
10462;BME280;5278;42.656;23.374;2023-04-26T04:35:54;93679.28;;;13.12;84.77
10462;BME280;5278;42.656;23.374;2023-04-26T04:38:20;93686.22;;;13.24;85.04
10462;BME280;5278;42.656;23.374;2023-04-26T04:40:47;93671.28;;;13.31;84.25
10462;BME280;5278;42.656;23.374;2023-04-26T04:43:15;93675.34;;;13.46;84.94
10462;BME280;5278;42.656;23.374;2023-04-26T04:45:42;93678.88;;;13.58;85.02
10462;BME280;5278;42.656;23.374;2023-04-26T04:48:10;93682.50;;;13.75;83.53
10462;BME280;5278;42.656;23.374;2023-04-26T04:50:37;93677.50;;;13.92;83.19
10462;BME280;5278;42.656;23.374;2023-04-26T04:53:04;93686.88;;;13.99;82.15
10462;BME280;5278;42.656;23.374;2023-04-26T04:55:31;93693.00;;;14.05;82.74
10462;BME280;5278;42.656;23.374;2023-04-26T04:57:58;93683.44;;;14.17;81.82
10462;BME280;5278;42.656;23.374;2023-04-26T05:00:25;93677.47;;;14.28;81.14
10462;BME280;5278;42.656;23.374;2023-04-26T05:02:52;93691.34;;;14.29;80.27
10462;BME280;5278;42.656;23.374;2023-04-26T05:05:20;93689.25;;;14.19;80.17
10462;BME280;5278;42.656;23.374;2023-04-26T05:07:47;93680.09;;;14.28;80.14
10462;BME280;5278;42.656;23.374;2023-04-26T05:10:14;93680.75;;;14.42;80.16
10462;BME280;5278;42.656;23.374;2023-04-26T05:12:41;93703.31;;;14.54;78.34
10462;BME280;5278;42.656;23.374;2023-04-26T05:15:08;93685.03;;;14.66;78.48
10462;BME280;5278;42.656;23.374;2023-04-26T05:17:35;93687.47;;;14.79;78.81
10462;BME280;5278;42.656;23.374;2023-04-26T05:20:02;93682.84;;;14.93;77.66
10462;BME280;5278;42.656;23.374;2023-04-26T05:22:33;93682.63;;;15.06;77.01
10462;BME280;5278;42.656;23.374;2023-04-26T05:25:01;93690.28;;;15.31;77.42
10462;BME280;5278;42.656;23.374;2023-04-26T05:27:29;93688.88;;;15.58;76.54
10462;BME280;5278;42.656;23.374;2023-04-26T05:29:56;93690.31;;;15.77;75.08
10462;BME280;5278;42.656;23.374;2023-04-26T05:32:22;93695.19;;;15.97;73.32
10462;BME280;5278;42.656;23.374;2023-04-26T05:34:49;93693.78;;;16.18;72.80
10462;BME280;5278;42.656;23.374;2023-04-26T05:37:16;93692.94;;;16.41;71.97
10462;BME280;5278;42.656;23.374;2023-04-26T05:39:44;93698.06;;;16.75;70.31
10462;BME280;5278;42.656;23.374;2023-04-26T05:42:11;93689.75;;;16.95;67.75
10462;BME280;5278;42.656;23.374;2023-04-26T05:44:38;93697.50;;;17.35;65.89
10462;BME280;5278;42.656;23.374;2023-04-26T05:47:05;93695.75;;;17.74;65.39
10462;BME280;5278;42.656;23.374;2023-04-26T05:49:32;93693.28;;;18.23;62.60
10462;BME280;5278;42.656;23.374;2023-04-26T05:51:59;93689.47;;;18.35;60.18
10462;BME280;5278;42.656;23.374;2023-04-26T05:54:28;93710.91;;;18.49;58.76
10462;BME280;5278;42.656;23.374;2023-04-26T05:56:56;93690.81;;;18.81;58.12
10462;BME280;5278;42.656;23.374;2023-04-26T05:59:23;93689.59;;;18.94;57.05
10462;BME280;5278;42.656;23.374;2023-04-26T06:01:50;93690.28;;;18.84;57.20
10462;BME280;5278;42.656;23.374;2023-04-26T06:04:17;93683.66;;;18.55;58.12
10462;BME280;5278;42.656;23.374;2023-04-26T06:06:44;93690.09;;;18.42;58.58
10462;BME280;5278;42.656;23.374;2023-04-26T06:09:10;93695.22;;;18.11;57.81
10462;BME280;5278;42.656;23.374;2023-04-26T06:11:37;93693.19;;;17.79;59.34
10462;BME280;5278;42.656;23.374;2023-04-26T06:14:06;93688.28;;;17.66;60.24
10462;BME280;5278;42.656;23.374;2023-04-26T06:16:33;93689.63;;;17.69;60.95
10462;BME280;5278;42.656;23.374;2023-04-26T06:18:59;93525.06;;;16.52;60.59
10462;BME280;5278;42.656;23.374;2023-04-26T06:21:26;93698.22;;;17.64;60.87
10462;BME280;5278;42.656;23.374;2023-04-26T06:23:53;93692.22;;;17.85;60.63
10462;BME280;5278;42.656;23.374;2023-04-26T06:26:20;93696.13;;;18.21;59.64
10462;BME280;5278;42.656;23.374;2023-04-26T06:28:47;93688.81;;;18.67;59.18
10462;BME280;5278;42.656;23.374;2023-04-26T06:31:15;93685.59;;;19.18;71.20
10462;BME280;5278;42.656;23.374;2023-04-26T06:33:42;93672.75;;;19.96;70.69
10462;BME280;5278;42.656;23.374;2023-04-26T06:36:10;93678.63;;;20.70;64.86
10462;BME280;5278;42.656;23.374;2023-04-26T06:38:38;93592.31;;;20.91;57.59
10462;BME280;5278;42.656;23.374;2023-04-26T06:41:05;93673.69;;;22.05;55.50
10462;BME280;5278;42.656;23.374;2023-04-26T06:43:33;93671.84;;;22.06;51.96
10462;BME280;5278;42.656;23.374;2023-04-26T06:45:59;93667.06;;;22.03;50.89
10462;BME280;5278;42.656;23.374;2023-04-26T06:48:28;93676.31;;;22.10;49.13
10462;BME280;5278;42.656;23.374;2023-04-26T06:50:55;93662.31;;;22.00;47.86
10462;BME280;5278;42.656;23.374;2023-04-26T06:53:21;93661.75;;;22.08;47.24
10462;BME280;5278;42.656;23.374;2023-04-26T06:55:48;93678.44;;;22.08;45.12
10462;BME280;5278;42.656;23.374;2023-04-26T06:58:17;93676.34;;;22.00;43.52
10462;BME280;5278;42.656;23.374;2023-04-26T07:00:44;93683.47;;;21.89;43.30
10462;BME280;5278;42.656;23.374;2023-04-26T07:03:11;93678.19;;;21.89;42.45
10462;BME280;5278;42.656;23.374;2023-04-26T07:05:39;93590.75;;;21.40;40.79
10462;BME280;5278;42.656;23.374;2023-04-26T07:08:06;93692.41;;;22.29;40.23
10462;BME280;5278;42.656;23.374;2023-04-26T07:10:33;93617.75;;;22.27;39.06
10462;BME280;5278;42.656;23.374;2023-04-26T07:13:00;93686.16;;;23.18;38.41
10462;BME280;5278;42.656;23.374;2023-04-26T07:15:27;93687.31;;;23.51;37.31
10462;BME280;5278;42.656;23.374;2023-04-26T07:17:54;93682.66;;;23.95;36.52
10462;BME280;5278;42.656;23.374;2023-04-26T07:20:21;93680.69;;;24.06;36.09
10462;BME280;5278;42.656;23.374;2023-04-26T07:22:50;93690.63;;;24.48;35.09
10462;BME280;5278;42.656;23.374;2023-04-26T07:25:16;93680.25;;;24.94;34.23
10462;BME280;5278;42.656;23.374;2023-04-26T07:27:43;93686.00;;;25.20;34.09
10462;BME280;5278;42.656;23.374;2023-04-26T07:30:11;93690.78;;;25.37;33.47
10462;BME280;5278;42.656;23.374;2023-04-26T07:32:38;93681.84;;;25.14;32.46
10462;BME280;5278;42.656;23.374;2023-04-26T07:35:06;93701.81;;;25.30;32.13
10462;BME280;5278;42.656;23.374;2023-04-26T07:37:34;93686.53;;;25.54;32.83
10462;BME280;5278;42.656;23.374;2023-04-26T07:40:04;93691.25;;;25.25;32.15
10462;BME280;5278;42.656;23.374;2023-04-26T07:42:33;93658.44;;;24.02;34.43
10462;BME280;5278;42.656;23.374;2023-04-26T07:45:00;93679.75;;;23.63;34.59
10462;BME280;5278;42.656;23.374;2023-04-26T07:47:27;93706.91;;;23.55;34.97
10462;BME280;5278;42.656;23.374;2023-04-26T07:49:54;93706.41;;;23.43;33.84
10462;BME280;5278;42.656;23.374;2023-04-26T07:52:21;93699.47;;;23.52;33.97
10462;BME280;5278;42.656;23.374;2023-04-26T07:54:48;93703.91;;;23.62;34.11
10462;BME280;5278;42.656;23.374;2023-04-26T07:57:17;93695.69;;;22.75;35.26
10462;BME280;5278;42.656;23.374;2023-04-26T07:59:44;93610.25;;;20.74;37.51
10462;BME280;5278;42.656;23.374;2023-04-26T08:02:11;93700.84;;;20.79;39.14
10462;BME280;5278;42.656;23.374;2023-04-26T08:04:39;93688.13;;;20.61;37.69
10462;BME280;5278;42.656;23.374;2023-04-26T08:07:06;93705.91;;;21.06;37.26
10462;BME280;5278;42.656;23.374;2023-04-26T08:09:33;93706.50;;;21.23;36.36
10462;BME280;5278;42.656;23.374;2023-04-26T08:12:00;93706.50;;;21.48;36.87
10462;BME280;5278;42.656;23.374;2023-04-26T08:14:31;93714.44;;;21.94;36.43
10462;BME280;5278;42.656;23.374;2023-04-26T08:16:58;93620.19;;;22.13;35.13
10462;BME280;5278;42.656;23.374;2023-04-26T08:19:26;93702.94;;;22.49;35.16
10462;BME280;5278;42.656;23.374;2023-04-26T08:21:56;93711.50;;;22.21;35.40
10462;BME280;5278;42.656;23.374;2023-04-26T08:24:22;93708.59;;;21.82;36.57
10462;BME280;5278;42.656;23.374;2023-04-26T08:26:49;93695.13;;;21.38;36.49
10462;BME280;5278;42.656;23.374;2023-04-26T08:29:16;93704.63;;;21.14;36.83
10462;BME280;5278;42.656;23.374;2023-04-26T08:31:44;93644.34;;;20.13;37.92
10462;BME280;5278;42.656;23.374;2023-04-26T08:34:11;93707.34;;;20.51;39.17
10462;BME280;5278;42.656;23.374;2023-04-26T08:36:39;93718.38;;;20.43;39.53
10462;BME280;5278;42.656;23.374;2023-04-26T08:39:06;93708.50;;;20.76;39.27
10462;BME280;5278;42.656;23.374;2023-04-26T08:41:35;93711.16;;;20.86;38.80
10462;BME280;5278;42.656;23.374;2023-04-26T08:44:04;93712.69;;;20.67;39.02
10462;BME280;5278;42.656;23.374;2023-04-26T08:46:39;93723.81;;;20.79;38.99
10462;BME280;5278;42.656;23.374;2023-04-26T08:49:20;93716.06;;;20.52;39.12
10462;BME280;5278;42.656;23.374;2023-04-26T08:51:49;93717.66;;;20.63;38.26
10462;BME280;5278;42.656;23.374;2023-04-26T08:54:18;93690.50;;;20.73;38.46
10462;BME280;5278;42.656;23.374;2023-04-26T08:56:46;93723.69;;;20.48;38.78
10462;BME280;5278;42.656;23.374;2023-04-26T08:59:14;93726.44;;;20.22;39.65
10462;BME280;5278;42.656;23.374;2023-04-26T09:01:42;93730.22;;;19.94;39.55
10462;BME280;5278;42.656;23.374;2023-04-26T09:04:10;93724.72;;;19.63;40.58
10462;BME280;5278;42.656;23.374;2023-04-26T09:06:39;93729.69;;;19.55;40.54
10462;BME280;5278;42.656;23.374;2023-04-26T09:09:08;93718.03;;;19.88;40.02
10462;BME280;5278;42.656;23.374;2023-04-26T09:11:51;93726.88;;;20.55;39.04
10462;BME280;5278;42.656;23.374;2023-04-26T09:14:18;93722.88;;;21.25;37.11
10462;BME280;5278;42.656;23.374;2023-04-26T09:16:45;93722.13;;;21.55;36.29
10462;BME280;5278;42.656;23.374;2023-04-26T09:19:12;93723.44;;;21.98;35.37
10462;BME280;5278;42.656;23.374;2023-04-26T09:21:42;93713.09;;;22.12;35.89
10462;BME280;5278;42.656;23.374;2023-04-26T09:24:10;93726.00;;;22.33;35.49
10462;BME280;5278;42.656;23.374;2023-04-26T09:26:37;93722.91;;;22.01;34.94
10462;BME280;5278;42.656;23.374;2023-04-26T09:29:14;93717.06;;;22.19;35.62
10462;BME280;5278;42.656;23.374;2023-04-26T09:31:43;93725.25;;;22.13;35.86
10462;BME280;5278;42.656;23.374;2023-04-26T09:34:11;93725.81;;;21.95;36.09
10462;BME280;5278;42.656;23.374;2023-04-26T09:36:47;93735.84;;;22.13;35.75
10462;BME280;5278;42.656;23.374;2023-04-26T09:39:15;93729.25;;;22.10;35.44
10462;BME280;5278;42.656;23.374;2023-04-26T09:41:55;93725.03;;;22.04;35.49
10462;BME280;5278;42.656;23.374;2023-04-26T09:44:22;93701.75;;;21.61;34.93
10462;BME280;5278;42.656;23.374;2023-04-26T09:47:02;93726.88;;;21.53;35.87
10462;BME280;5278;42.656;23.374;2023-04-26T09:49:31;93719.22;;;21.41;36.10
10462;BME280;5278;42.656;23.374;2023-04-26T09:52:05;93686.69;;;21.21;36.63
10462;BME280;5278;42.656;23.374;2023-04-26T09:54:40;93710.47;;;21.31;36.32
10462;BME280;5278;42.656;23.374;2023-04-26T09:57:08;93719.44;;;21.25;36.06
10462;BME280;5278;42.656;23.374;2023-04-26T09:59:39;93711.00;;;21.58;35.87
10462;BME280;5278;42.656;23.374;2023-04-26T10:02:12;93706.00;;;21.52;36.27
10462;BME280;5278;42.656;23.374;2023-04-26T10:04:40;93719.19;;;21.21;36.08
10462;BME280;5278;42.656;23.374;2023-04-26T10:07:11;93712.75;;;20.87;36.66
10462;BME280;5278;42.656;23.374;2023-04-26T10:09:38;93708.34;;;21.18;36.60
10462;BME280;5278;42.656;23.374;2023-04-26T10:12:05;93703.31;;;22.02;34.82
10462;BME280;5278;42.656;23.374;2023-04-26T10:14:33;93701.94;;;22.35;34.23
10462;BME280;5278;42.656;23.374;2023-04-26T10:17:02;93707.31;;;21.74;34.37
10462;BME280;5278;42.656;23.374;2023-04-26T10:19:29;93708.03;;;21.09;35.44
10462;BME280;5278;42.656;23.374;2023-04-26T10:22:01;93702.09;;;20.56;35.84
10462;BME280;5278;42.656;23.374;2023-04-26T10:24:31;93700.09;;;20.99;35.84
10462;BME280;5278;42.656;23.374;2023-04-26T10:26:58;93689.94;;;22.48;33.75
10462;BME280;5278;42.656;23.374;2023-04-26T10:30:06;93692.94;;;23.39;32.00
10462;BME280;5278;42.656;23.374;2023-04-26T10:36:10;93692.66;;;23.41;30.97
10462;BME280;5278;42.656;23.374;2023-04-26T10:38:39;93692.63;;;22.38;31.90
10462;BME280;5278;42.656;23.374;2023-04-26T10:41:30;93698.06;;;21.57;33.84
10462;BME280;5278;42.656;23.374;2023-04-26T10:43:59;93699.59;;;21.02;34.23
10462;BME280;5278;42.656;23.374;2023-04-26T10:46:34;93699.56;;;21.07;34.56
10462;BME280;5278;42.656;23.374;2023-04-26T10:49:12;93690.56;;;20.93;33.40
10462;BME280;5278;42.656;23.374;2023-04-26T10:51:40;93691.84;;;20.75;34.62
10462;BME280;5278;42.656;23.374;2023-04-26T10:54:08;93692.31;;;20.57;34.66
10462;BME280;5278;42.656;23.374;2023-04-26T10:56:51;93692.28;;;20.00;35.50
10462;BME280;5278;42.656;23.374;2023-04-26T10:59:20;93696.34;;;19.75;35.63
10462;BME280;5278;42.656;23.374;2023-04-26T11:01:47;93695.09;;;19.46;36.13
10462;BME280;5278;42.656;23.374;2023-04-26T11:04:14;93692.03;;;19.59;35.90
10462;BME280;5278;42.656;23.374;2023-04-26T11:06:48;93687.38;;;19.71;35.24
10462;BME280;5278;42.656;23.374;2023-04-26T11:09:34;93599.75;;;19.17;35.48
10462;BME280;5278;42.656;23.374;2023-04-26T11:12:05;93691.78;;;19.61;36.00
10462;BME280;5278;42.656;23.374;2023-04-26T11:14:32;93697.81;;;19.56;36.14
10462;BME280;5278;42.656;23.374;2023-04-26T11:17:02;93692.97;;;19.48;37.01
10462;BME280;5278;42.656;23.374;2023-04-26T11:19:29;93696.22;;;19.55;36.22
10462;BME280;5278;42.656;23.374;2023-04-26T11:21:57;93641.00;;;19.07;36.56
10462;BME280;5278;42.656;23.374;2023-04-26T11:24:25;93729.53;;;19.13;36.02
10462;BME280;5278;42.656;23.374;2023-04-26T11:26:52;93703.63;;;18.73;36.27
10462;BME280;5278;42.656;23.374;2023-04-26T11:29:21;93699.22;;;18.57;36.73
10462;BME280;5278;42.656;23.374;2023-04-26T11:31:52;93700.88;;;18.89;37.20
10462;BME280;5278;42.656;23.374;2023-04-26T11:34:22;93687.69;;;19.80;35.90
10462;BME280;5278;42.656;23.374;2023-04-26T11:36:57;93698.09;;;20.54;35.19
10462;BME280;5278;42.656;23.374;2023-04-26T11:39:23;93693.16;;;20.83;33.96
10462;BME280;5278;42.656;23.374;2023-04-26T11:41:55;93688.34;;;20.54;34.14
10462;BME280;5278;42.656;23.374;2023-04-26T11:44:31;93703.97;;;20.14;35.04
10462;BME280;5278;42.656;23.374;2023-04-26T11:46:59;93688.72;;;20.21;35.23
10462;BME280;5278;42.656;23.374;2023-04-26T11:49:28;93687.59;;;20.64;34.48
10462;BME280;5278;42.656;23.374;2023-04-26T11:51:55;93691.06;;;20.75;33.41
10462;BME280;5278;42.656;23.374;2023-04-26T11:54:26;93624.44;;;20.47;32.36
10462;BME280;5278;42.656;23.374;2023-04-26T11:56:54;93545.25;;;20.32;31.76
10462;BME280;5278;42.656;23.374;2023-04-26T11:59:24;93613.09;;;20.37;32.61
10462;BME280;5278;42.656;23.374;2023-04-26T12:01:54;93694.88;;;20.32;33.26
10462;BME280;5278;42.656;23.374;2023-04-26T12:04:26;93688.81;;;19.94;34.26
10462;BME280;5278;42.656;23.374;2023-04-26T12:06:54;93599.09;;;19.37;35.03
10462;BME280;5278;42.656;23.374;2023-04-26T12:09:22;93680.25;;;20.19;34.76
10462;BME280;5278;42.656;23.374;2023-04-26T12:11:53;93683.78;;;20.35;33.17
10462;BME280;5278;42.656;23.374;2023-04-26T12:14:23;93676.16;;;20.43;33.23
10462;BME280;5278;42.656;23.374;2023-04-26T12:16:59;93665.09;;;20.46;32.95
10462;BME280;5278;42.656;23.374;2023-04-26T12:19:26;93675.63;;;20.41;33.13
10462;BME280;5278;42.656;23.374;2023-04-26T12:21:53;93675.63;;;20.41;33.86
10462;BME280;5278;42.656;23.374;2023-04-26T12:24:21;93662.72;;;19.98;34.01
10462;BME280;5278;42.656;23.374;2023-04-26T12:26:48;93669.09;;;20.02;34.77
10462;BME280;5278;42.656;23.374;2023-04-26T12:29:15;93671.13;;;20.32;34.57
10462;BME280;5278;42.656;23.374;2023-04-26T12:31:42;93674.38;;;20.59;33.63
10462;BME280;5278;42.656;23.374;2023-04-26T12:34:11;93668.84;;;20.08;34.27
10462;BME280;5278;42.656;23.374;2023-04-26T12:36:39;93663.84;;;20.07;34.55
10462;BME280;5278;42.656;23.374;2023-04-26T12:39:08;93672.84;;;20.16;34.18
10462;BME280;5278;42.656;23.374;2023-04-26T12:41:36;93660.00;;;19.83;34.57
10462;BME280;5278;42.656;23.374;2023-04-26T12:44:03;93646.69;;;19.25;34.61
10462;BME280;5278;42.656;23.374;2023-04-26T12:46:30;93689.59;;;19.21;35.02
10462;BME280;5278;42.656;23.374;2023-04-26T12:48:57;93646.19;;;18.97;35.57
10462;BME280;5278;42.656;23.374;2023-04-26T12:51:26;93670.69;;;19.29;35.20
10462;BME280;5278;42.656;23.374;2023-04-26T12:53:53;93586.94;;;18.62;35.25
10462;BME280;5278;42.656;23.374;2023-04-26T12:56:19;93679.75;;;19.11;35.25
10462;BME280;5278;42.656;23.374;2023-04-26T12:58:47;93664.75;;;18.85;36.09
10462;BME280;5278;42.656;23.374;2023-04-26T13:01:14;93674.44;;;18.79;36.60
10462;BME280;5278;42.656;23.374;2023-04-26T13:03:41;93677.28;;;18.51;36.62
10462;BME280;5278;42.656;23.374;2023-04-26T13:06:08;93675.56;;;18.18;36.95
10462;BME280;5278;42.656;23.374;2023-04-26T13:08:37;93688.13;;;18.11;37.54